Linda Lee Bouchard — WDD4370 — position and weather

sailwx.info

Track history (hours):
 
Tides and Currents Weather Stations Pressure Air Temp Water Temp Dewpoint Dewpoint Depression Visibility Wind Speed Wind Dir Waves Ship Positions

Linda Lee Bouchard

Owner: LINDA LEE BOUCHARD, Melville, NY. More information available from US FCC via Universal Licensing System and Coast Guard Vessel Documentation Center.

Last reported at 2017-Sep-17 00:15 UTC. Time now 2017-Sep-22 04:23 UTC.
Position N 25°23' W 080°03'.

Length 162 m; draft 5.9 m.

Type: . MMSI: 367115000.

Date/timePositionNaut miles runAvg speedWind from/ knotsBaromVisibWave heightAir tempDewpointWater temp
2017-Sep-17 00:15N 25°23' W 080°03'311.3
2017-Sep-16 23:59N 25°26' W 080°03'511.1
2017-Sep-16 23:30N 25°31' W 080°03'5 9.9
2017-Sep-16 23:00N 25°36' W 080°03'4 9.1
2017-Sep-16 22:30N 25°40' W 080°02'4 8.8
2017-Sep-16 22:00N 25°45' W 080°02'4 8.9
2017-Sep-16 21:30N 25°49' W 080°02'4 8.7
2017-Sep-16 21:00N 25°54' W 080°02'4 7.9
2017-Sep-16 20:30N 25°57' W 080°01'4 8.5
2017-Sep-16 20:00N 26°02' W 080°01'4 8.3
2017-Sep-16 19:31N 26°06' W 080°01'4 8.1
2017-Sep-16 19:01N 26°10' W 080°01'20 8.1
2017-Sep-16 16:34N 26°30' W 079°59'0 8.1
2017-Sep-16 16:30N 26°30' W 079°59'4 8.1
2017-Sep-16 15:59N 26°34' W 079°59'14 7.9
2017-Sep-16 14:14N 26°48' W 079°59'2 8.3
2017-Sep-16 13:58N 26°50' W 079°59'3 7.7
2017-Sep-16 13:30N 26°54' W 079°59'4 8.5
2017-Sep-16 13:01N 26°58' W 080°00'259 9.0
2017-Sep-15 08:14N 31°17' W 080°16'2 9.3
2017-Sep-15 08:00N 31°19' W 080°15'5 9.3
2017-Sep-15 07:30N 31°23' W 080°12'5 9.4
2017-Sep-15 07:00N 31°28' W 080°10'5 9.3
2017-Sep-15 06:29N 31°32' W 080°07'4 9.5
2017-Sep-15 06:00N 31°36' W 080°05'5 9.5
2017-Sep-15 05:30N 31°40' W 080°02'5 9.6
2017-Sep-15 05:01N 31°44' W 079°59'5 9.8
2017-Sep-15 04:30N 31°48' W 079°56'5 9.8
2017-Sep-15 04:00N 31°52' W 079°52'5 9.8
2017-Sep-15 03:30N 31°56' W 079°49'5 9.9
2017-Sep-15 03:00N 31°60' W 079°45'5 9.9
2017-Sep-15 02:30N 32°04' W 079°42'207 9.1
2017-Sep-14 03:44N 34°15' W 076°30'2 9.1
2017-Sep-14 03:30N 34°16' W 076°28'15 8.9
2017-Sep-14 01:49N 34°26' W 076°14'3 9.3
2017-Sep-14 01:30N 34°28' W 076°12'6 9.2
2017-Sep-14 00:50N 34°33' W 076°07'139 7.8
2017-Sep-13 07:10N 36°51' W 075°52'1 8.7
2017-Sep-13 07:00N 36°52' W 075°53'4 8.5
2017-Sep-13 06:30N 36°55' W 075°57'4 8.3
2017-Sep-13 06:00N 36°59' W 076°00'20 8.6
2017-Sep-13 03:42N 37°13' W 076°17'2 8.9
2017-Sep-13 03:25N 37°14' W 076°20'6 0.4
2017-Sep-12 13:27N 37°14' W 076°28'0 0.1
2017-Sep-12 12:51N 37°14' W 076°28'0 0.1
2017-Sep-12 12:30N 37°14' W 076°28'  
Track history (hours):
 
Tides and Currents Weather Stations Pressure Air Temp Water Temp Dewpoint Dewpoint Depression Visibility Wind Speed Wind Dir Waves Ship Positions

Linda Lee Bouchard

Owner: LINDA LEE BOUCHARD, Melville, NY. More information available from US FCC via Universal Licensing System and Coast Guard Vessel Documentation Center.

Last reported at 2017-Sep-17 00:15 UTC. Time now 2017-Sep-22 04:23 UTC.
Position N 25°23' W 080°03'.

Length 162 m; draft 5.9 m.

Type: . MMSI: 367115000.

Date/timePositionNaut miles runAvg speedWind from/ knotsBaromVisibWave heightAir tempDewpointWater temp
2017-Sep-17 00:15N 25°23' W 080°03'311.3
2017-Sep-16 23:59N 25°26' W 080°03'511.1
2017-Sep-16 23:30N 25°31' W 080°03'5 9.9
2017-Sep-16 23:00N 25°36' W 080°03'4 9.1
2017-Sep-16 22:30N 25°40' W 080°02'4 8.8
2017-Sep-16 22:00N 25°45' W 080°02'4 8.9
2017-Sep-16 21:30N 25°49' W 080°02'4 8.7
2017-Sep-16 21:00N 25°54' W 080°02'4 7.9
2017-Sep-16 20:30N 25°57' W 080°01'4 8.5
2017-Sep-16 20:00N 26°02' W 080°01'4 8.3
2017-Sep-16 19:31N 26°06' W 080°01'4 8.1
2017-Sep-16 19:01N 26°10' W 080°01'20 8.1
2017-Sep-16 16:34N 26°30' W 079°59'0 8.1
2017-Sep-16 16:30N 26°30' W 079°59'4 8.1
2017-Sep-16 15:59N 26°34' W 079°59'14 7.9
2017-Sep-16 14:14N 26°48' W 079°59'2 8.3
2017-Sep-16 13:58N 26°50' W 079°59'3 7.7
2017-Sep-16 13:30N 26°54' W 079°59'4 8.5
2017-Sep-16 13:01N 26°58' W 080°00'259 9.0
2017-Sep-15 08:14N 31°17' W 080°16'2 9.3
2017-Sep-15 08:00N 31°19' W 080°15'5 9.3
2017-Sep-15 07:30N 31°23' W 080°12'5 9.4
2017-Sep-15 07:00N 31°28' W 080°10'5 9.3
2017-Sep-15 06:29N 31°32' W 080°07'4 9.5
2017-Sep-15 06:00N 31°36' W 080°05'5 9.5
2017-Sep-15 05:30N 31°40' W 080°02'5 9.6
2017-Sep-15 05:01N 31°44' W 079°59'5 9.8
2017-Sep-15 04:30N 31°48' W 079°56'5 9.8
2017-Sep-15 04:00N 31°52' W 079°52'5 9.8
2017-Sep-15 03:30N 31°56' W 079°49'5 9.9
2017-Sep-15 03:00N 31°60' W 079°45'5 9.9
2017-Sep-15 02:30N 32°04' W 079°42'207 9.1
2017-Sep-14 03:44N 34°15' W 076°30'2 9.1
2017-Sep-14 03:30N 34°16' W 076°28'15 8.9
2017-Sep-14 01:49N 34°26' W 076°14'3 9.3
2017-Sep-14 01:30N 34°28' W 076°12'6 9.2
2017-Sep-14 00:50N 34°33' W 076°07'139 7.8
2017-Sep-13 07:10N 36°51' W 075°52'1 8.7
2017-Sep-13 07:00N 36°52' W 075°53'4 8.5
2017-Sep-13 06:30N 36°55' W 075°57'4 8.3
2017-Sep-13 06:00N 36°59' W 076°00'20 8.6
2017-Sep-13 03:42N 37°13' W 076°17'2 8.9
2017-Sep-13 03:25N 37°14' W 076°20'6 0.4
2017-Sep-12 13:27N 37°14' W 076°28'0 0.1
2017-Sep-12 12:51N 37°14' W 076°28'0 0.1
2017-Sep-12 12:30N 37°14' W 076°28'  

Dump ship's entire track history